Ana Sayfa
METAR-TAF:

METAR-TAF

Havaalanları :

Bobby L. Chain Municipal Airport

Hattiesburg, Mississipi, Amerika Birleşik Devletleri

Enlem: 31-15-54N, Boylam: 089-15-11W, yükseklik: 46 m

Güncel hava durumu gözlemi

Rapor saat 08:53 UTC de 36 dakika önce yapıldı.
Rüzgar güneydan 4 kt
Sıcaklık 24°C
Nem 89%
Basınç 1014 hPa
Görüş mesafesi: 16.1 km
Açık gökyüzü

METAR: KHBG 250853Z AUTO 17004KT 10SM CLR 24/22 A2995 RMK AO2 SLP139 T02390222 53003

Saat: 04:29 (09:29 UTC)

Tahmin

Rapor saat 05:22 UTC de 4 saat ve 7 dakika önce yapıldı.
Ayın 25'si saat 06 UTC'den ayın 26'si saat 06 UTC'ye kadar geçerli Tahmin
Rüzgar batı/kuzeybatıdan 4 kt
Görüş mesafesi: 10 km
6000 ft yükseklikte parçalı bulutlu

TAF: KHBG 250522Z 2506/2606 29004KT P6SM SCT060

4.000'den fazla havaalanı için hava durumu gözlemleri ve tahminleri (METAR ve TAF raporları).

Kullanılabilir istasyonlar harita üzerinde sarı ve kırmızı noktalarla gösterilir.

İstasyonun adını görmek için fareyi noktanın üzerinde gezdirin.

Sonrasında hava gözlem ve tahminlerini görmek için tıklayın.

Haritayı değiştirmek için: yaklaştırmak için siyah artı işaretli yeşil düğmeye ve uzaklaştırmak için de eksi işaretli düğmeye hızla tıklayın; bitişik haritalar için yeşil okları kullanın.


METAR-TAF: